sensor_id;sensor_type;location;lat;lon;timestamp;pressure;altitude;pressure_sealevel;temperature;humidity
30682;BME280;17439;48.092;11.842;2024-02-26T00:01:21;93728.59;;;5.03;70.42
30682;BME280;17439;48.092;11.842;2024-02-26T00:03:48;93722.41;;;5.02;70.41
30682;BME280;17439;48.092;11.842;2024-02-26T00:06:15;93720.53;;;5.03;70.55
30682;BME280;17439;48.092;11.842;2024-02-26T00:08:41;93717.03;;;5.02;70.36
30682;BME280;17439;48.092;11.842;2024-02-26T00:11:08;93719.72;;;5.02;70.28
30682;BME280;17439;48.092;11.842;2024-02-26T00:13:38;93723.53;;;5.01;70.20
30682;BME280;17439;48.092;11.842;2024-02-26T00:16:04;93733.16;;;5.02;70.22
30682;BME280;17439;48.092;11.842;2024-02-26T00:18:31;93722.72;;;5.01;69.96
30682;BME280;17439;48.092;11.842;2024-02-26T00:20:58;93727.78;;;5.02;69.83
30682;BME280;17439;48.092;11.842;2024-02-26T00:23:25;93723.03;;;4.99;69.88
30682;BME280;17439;48.092;11.842;2024-02-26T00:25:51;93720.66;;;4.98;69.80
30682;BME280;17439;48.092;11.842;2024-02-26T00:28:18;93721.47;;;4.98;70.12
30682;BME280;17439;48.092;11.842;2024-02-26T00:30:45;93725.56;;;4.96;69.71
30682;BME280;17439;48.092;11.842;2024-02-26T00:33:14;93718.63;;;4.95;69.77
30682;BME280;17439;48.092;11.842;2024-02-26T00:35:41;93710.88;;;4.93;69.97
30682;BME280;17439;48.092;11.842;2024-02-26T00:38:07;93712.00;;;4.92;70.12
30682;BME280;17439;48.092;11.842;2024-02-26T00:40:34;93712.00;;;4.92;69.66
30682;BME280;17439;48.092;11.842;2024-02-26T00:43:01;93703.47;;;4.90;69.84
30682;BME280;17439;48.092;11.842;2024-02-26T00:45:28;93701.91;;;4.89;69.78
30682;BME280;17439;48.092;11.842;2024-02-26T00:47:54;93701.44;;;4.87;69.74
30682;BME280;17439;48.092;11.842;2024-02-26T00:50:21;93707.91;;;4.86;69.48
30682;BME280;17439;48.092;11.842;2024-02-26T00:52:48;93699.38;;;4.84;69.24
30682;BME280;17439;48.092;11.842;2024-02-26T00:55:15;93697.78;;;4.83;68.93
30682;BME280;17439;48.092;11.842;2024-02-26T00:57:41;93705.38;;;4.81;68.94
30682;BME280;17439;48.092;11.842;2024-02-26T01:00:08;93701.41;;;4.78;68.95
30682;BME280;17439;48.092;11.842;2024-02-26T01:02:36;93706.63;;;4.75;68.69
30682;BME280;17439;48.092;11.842;2024-02-26T01:05:03;93703.50;;;4.72;68.94
30682;BME280;17439;48.092;11.842;2024-02-26T01:07:30;93704.13;;;4.69;68.93
30682;BME280;17439;48.092;11.842;2024-02-26T01:09:56;93703.16;;;4.65;68.51
30682;BME280;17439;48.092;11.842;2024-02-26T01:12:23;93705.38;;;4.63;68.63
30682;BME280;17439;48.092;11.842;2024-02-26T01:14:50;93710.56;;;4.60;68.61
30682;BME280;17439;48.092;11.842;2024-02-26T01:17:17;93703.94;;;4.57;68.70
30682;BME280;17439;48.092;11.842;2024-02-26T01:19:43;93701.13;;;4.53;68.43
30682;BME280;17439;48.092;11.842;2024-02-26T01:22:10;93704.44;;;4.50;68.60
30682;BME280;17439;48.092;11.842;2024-02-26T01:24:37;93702.38;;;4.47;68.43
30682;BME280;17439;48.092;11.842;2024-02-26T01:27:04;93710.25;;;4.44;68.64
30682;BME280;17439;48.092;11.842;2024-02-26T01:29:30;93702.84;;;4.41;68.77
30682;BME280;17439;48.092;11.842;2024-02-26T01:31:57;93711.53;;;4.38;68.65
30682;BME280;17439;48.092;11.842;2024-02-26T01:34:24;93715.59;;;4.35;68.72
30682;BME280;17439;48.092;11.842;2024-02-26T01:36:51;93717.00;;;4.32;68.86
30682;BME280;17439;48.092;11.842;2024-02-26T01:39:17;93716.53;;;4.30;68.73
30682;BME280;17439;48.092;11.842;2024-02-26T01:41:44;93716.06;;;4.28;68.52
30682;BME280;17439;48.092;11.842;2024-02-26T01:44:12;93717.47;;;4.26;68.35
30682;BME280;17439;48.092;11.842;2024-02-26T01:46:39;93722.38;;;4.24;68.24
30682;BME280;17439;48.092;11.842;2024-02-26T01:49:06;93719.22;;;4.22;68.44
30682;BME280;17439;48.092;11.842;2024-02-26T01:51:35;93717.16;;;4.18;68.63
30682;BME280;17439;48.092;11.842;2024-02-26T01:54:03;93711.31;;;4.16;68.22
30682;BME280;17439;48.092;11.842;2024-02-26T01:56:30;93708.94;;;4.15;68.32
30682;BME280;17439;48.092;11.842;2024-02-26T01:58:58;93706.88;;;4.12;68.08
30682;BME280;17439;48.092;11.842;2024-02-26T02:01:25;93702.94;;;4.09;68.22
30682;BME280;17439;48.092;11.842;2024-02-26T02:03:55;93700.56;;;4.08;68.00
30682;BME280;17439;48.092;11.842;2024-02-26T02:06:23;93701.97;;;4.05;68.12
30682;BME280;17439;48.092;11.842;2024-02-26T02:08:50;93706.09;;;4.03;68.14
30682;BME280;17439;48.092;11.842;2024-02-26T02:11:17;93699.44;;;4.00;68.26
30682;BME280;17439;48.092;11.842;2024-02-26T02:13:43;93705.13;;;3.98;68.12
30682;BME280;17439;48.092;11.842;2024-02-26T02:16:10;93705.41;;;3.97;68.34
30682;BME280;17439;48.092;11.842;2024-02-26T02:18:37;93699.91;;;3.93;68.18
30682;BME280;17439;48.092;11.842;2024-02-26T02:21:04;93702.88;;;3.92;68.17
30682;BME280;17439;48.092;11.842;2024-02-26T02:23:31;93693.56;;;3.89;68.04
30682;BME280;17439;48.092;11.842;2024-02-26T02:25:58;93691.50;;;3.86;67.86
30682;BME280;17439;48.092;11.842;2024-02-26T02:28:26;93701.75;;;3.84;67.81
30682;BME280;17439;48.092;11.842;2024-02-26T02:30:54;93693.25;;;3.82;68.03
30682;BME280;17439;48.092;11.842;2024-02-26T02:33:22;93688.50;;;3.79;67.94
30682;BME280;17439;48.092;11.842;2024-02-26T02:35:49;93687.53;;;3.75;68.08
30682;BME280;17439;48.092;11.842;2024-02-26T02:38:18;93687.06;;;3.73;68.29
30682;BME280;17439;48.092;11.842;2024-02-26T02:40:45;93680.13;;;3.72;68.06
30682;BME280;17439;48.092;11.842;2024-02-26T02:43:12;93681.22;;;3.71;68.24
30682;BME280;17439;48.092;11.842;2024-02-26T02:45:38;93684.53;;;3.68;68.42
30682;BME280;17439;48.092;11.842;2024-02-26T02:48:05;93684.84;;;3.66;68.46
30682;BME280;17439;48.092;11.842;2024-02-26T02:50:32;93682.47;;;3.65;68.80
30682;BME280;17439;48.092;11.842;2024-02-26T02:52:59;93680.88;;;3.63;68.88
30682;BME280;17439;48.092;11.842;2024-02-26T02:55:26;93684.66;;;3.62;68.62
30682;BME280;17439;48.092;11.842;2024-02-26T02:57:53;93677.72;;;3.61;68.85
30682;BME280;17439;48.092;11.842;2024-02-26T03:00:20;93680.72;;;3.60;68.91
30682;BME280;17439;48.092;11.842;2024-02-26T03:02:47;93683.41;;;3.60;68.70
30682;BME280;17439;48.092;11.842;2024-02-26T03:05:14;93687.16;;;3.59;68.67
30682;BME280;17439;48.092;11.842;2024-02-26T03:07:41;93689.06;;;3.58;68.62
30682;BME280;17439;48.092;11.842;2024-02-26T03:10:08;93690.16;;;3.57;68.68
30682;BME280;17439;48.092;11.842;2024-02-26T03:12:35;93681.63;;;3.55;68.50
30682;BME280;17439;48.092;11.842;2024-02-26T03:15:02;93681.16;;;3.53;68.39
30682;BME280;17439;48.092;11.842;2024-02-26T03:17:29;93682.56;;;3.51;68.30
30682;BME280;17439;48.092;11.842;2024-02-26T03:19:55;93679.41;;;3.49;68.43
30682;BME280;17439;48.092;11.842;2024-02-26T03:22:22;93683.19;;;3.48;68.61
30682;BME280;17439;48.092;11.842;2024-02-26T03:24:49;93678.91;;;3.47;68.91
30682;BME280;17439;48.092;11.842;2024-02-26T03:27:16;93680.81;;;3.46;69.12
30682;BME280;17439;48.092;11.842;2024-02-26T03:29:42;93672.78;;;3.46;69.32
30682;BME280;17439;48.092;11.842;2024-02-26T03:32:09;93671.69;;;3.47;69.59
30682;BME280;17439;48.092;11.842;2024-02-26T03:34:36;93659.06;;;3.48;70.01
30682;BME280;17439;48.092;11.842;2024-02-26T03:37:03;93663.03;;;3.50;70.10
30682;BME280;17439;48.092;11.842;2024-02-26T03:39:30;93671.53;;;3.52;70.26
30682;BME280;17439;48.092;11.842;2024-02-26T03:41:56;93672.81;;;3.55;70.23
30682;BME280;17439;48.092;11.842;2024-02-26T03:44:23;93669.84;;;3.56;70.29
30682;BME280;17439;48.092;11.842;2024-02-26T03:46:50;93673.44;;;3.60;70.41
30682;BME280;17439;48.092;11.842;2024-02-26T03:49:16;93667.78;;;3.62;70.82
30682;BME280;17439;48.092;11.842;2024-02-26T03:51:43;93662.91;;;3.64;70.99
30682;BME280;17439;48.092;11.842;2024-02-26T03:54:10;93665.75;;;3.68;71.26
30682;BME280;17439;48.092;11.842;2024-02-26T03:56:36;93670.50;;;3.71;71.35
30682;BME280;17439;48.092;11.842;2024-02-26T03:59:03;93667.19;;;3.74;71.25
30682;BME280;17439;48.092;11.842;2024-02-26T04:01:30;93674.59;;;3.77;71.27
30682;BME280;17439;48.092;11.842;2024-02-26T04:03:57;93664.84;;;3.81;71.01
30682;BME280;17439;48.092;11.842;2024-02-26T04:06:23;93671.81;;;3.82;70.88
30682;BME280;17439;48.092;11.842;2024-02-26T04:08:50;93668.50;;;3.85;70.89
30682;BME280;17439;48.092;11.842;2024-02-26T04:11:17;93667.38;;;3.86;70.52
30682;BME280;17439;48.092;11.842;2024-02-26T04:13:44;93665.19;;;3.88;70.52
30682;BME280;17439;48.092;11.842;2024-02-26T04:16:11;93672.13;;;3.89;70.32
30682;BME280;17439;48.092;11.842;2024-02-26T04:18:38;93671.03;;;3.90;70.08
30682;BME280;17439;48.092;11.842;2024-02-26T04:21:05;93663.75;;;3.91;70.00
30682;BME280;17439;48.092;11.842;2024-02-26T04:23:34;93676.06;;;3.92;70.13
30682;BME280;17439;48.092;11.842;2024-02-26T04:26:01;93678.44;;;3.93;70.03
30682;BME280;17439;48.092;11.842;2024-02-26T04:28:27;93669.59;;;3.93;69.97
30682;BME280;17439;48.092;11.842;2024-02-26T04:30:55;93672.28;;;3.93;69.82
30682;BME280;17439;48.092;11.842;2024-02-26T04:33:21;93665.81;;;3.94;70.02
30682;BME280;17439;48.092;11.842;2024-02-26T04:35:48;93668.50;;;3.94;69.94
30682;BME280;17439;48.092;11.842;2024-02-26T04:38:15;93665.81;;;3.94;69.58
30682;BME280;17439;48.092;11.842;2024-02-26T04:40:42;93658.09;;;3.92;69.66
30682;BME280;17439;48.092;11.842;2024-02-26T04:43:08;93669.28;;;3.94;69.63
30682;BME280;17439;48.092;11.842;2024-02-26T04:45:35;93675.28;;;3.91;69.40
30682;BME280;17439;48.092;11.842;2024-02-26T04:48:02;93675.28;;;3.91;69.66
30682;BME280;17439;48.092;11.842;2024-02-26T04:50:29;93679.06;;;3.90;69.71
30682;BME280;17439;48.092;11.842;2024-02-26T04:52:56;93683.66;;;3.90;69.73
30682;BME280;17439;48.092;11.842;2024-02-26T04:55:22;93679.06;;;3.90;69.47
30682;BME280;17439;48.092;11.842;2024-02-26T04:57:49;93674.03;;;3.89;69.09
30682;BME280;17439;48.092;11.842;2024-02-26T05:00:16;93670.88;;;3.87;69.12
30682;BME280;17439;48.092;11.842;2024-02-26T05:02:43;93673.88;;;3.85;69.28
30682;BME280;17439;48.092;11.842;2024-02-26T05:05:10;93679.53;;;3.84;69.23
30682;BME280;17439;48.092;11.842;2024-02-26T05:07:40;93688.66;;;3.83;67.79
30682;BME280;17439;48.092;11.842;2024-02-26T05:10:07;93678.25;;;3.81;69.19
30682;BME280;17439;48.092;11.842;2024-02-26T05:12:34;93679.34;;;3.80;69.42
30682;BME280;17439;48.092;11.842;2024-02-26T05:15:02;93685.50;;;3.80;69.72
30682;BME280;17439;48.092;11.842;2024-02-26T05:17:29;93671.31;;;3.80;70.01
30682;BME280;17439;48.092;11.842;2024-02-26T05:19:56;93672.13;;;3.80;69.93
30682;BME280;17439;48.092;11.842;2024-02-26T05:22:22;93671.00;;;3.81;70.19
30682;BME280;17439;48.092;11.842;2024-02-26T05:24:49;93662.94;;;3.81;70.14
30682;BME280;17439;48.092;11.842;2024-02-26T05:27:16;93665.00;;;3.85;70.56
30682;BME280;17439;48.092;11.842;2024-02-26T05:29:42;93660.16;;;3.87;70.40
30682;BME280;17439;48.092;11.842;2024-02-26T05:32:09;93667.06;;;3.88;70.62
30682;BME280;17439;48.092;11.842;2024-02-26T05:34:36;93666.75;;;3.89;70.10
30682;BME280;17439;48.092;11.842;2024-02-26T05:37:03;93668.81;;;3.92;70.10
30682;BME280;17439;48.092;11.842;2024-02-26T05:39:30;93667.72;;;3.93;70.06
30682;BME280;17439;48.092;11.842;2024-02-26T05:41:56;93670.88;;;3.95;69.86
30682;BME280;17439;48.092;11.842;2024-02-26T05:44:26;93664.44;;;3.96;68.75
30682;BME280;17439;48.092;11.842;2024-02-26T05:46:53;93668.97;;;3.96;69.60
30682;BME280;17439;48.092;11.842;2024-02-26T05:49:19;93669.78;;;3.96;69.68
30682;BME280;17439;48.092;11.842;2024-02-26T05:51:46;93675.16;;;3.96;69.60
30682;BME280;17439;48.092;11.842;2024-02-26T05:54:13;93681.28;;;3.97;69.88
30682;BME280;17439;48.092;11.842;2024-02-26T05:56:40;93684.44;;;3.99;70.09
30682;BME280;17439;48.092;11.842;2024-02-26T05:59:06;93679.88;;;3.99;70.27
30682;BME280;17439;48.092;11.842;2024-02-26T06:01:33;93684.63;;;4.03;70.48
30682;BME280;17439;48.092;11.842;2024-02-26T06:04:00;93695.81;;;4.05;70.43
30682;BME280;17439;48.092;11.842;2024-02-26T06:06:27;93696.75;;;4.09;70.54
30682;BME280;17439;48.092;11.842;2024-02-26T06:08:54;93701.50;;;4.12;70.52
30682;BME280;17439;48.092;11.842;2024-02-26T06:11:20;93710.84;;;4.14;70.42
30682;BME280;17439;48.092;11.842;2024-02-26T06:13:47;93708.31;;;4.18;70.48
30682;BME280;17439;48.092;11.842;2024-02-26T06:16:14;93701.84;;;4.19;70.54
30682;BME280;17439;48.092;11.842;2024-02-26T06:18:41;93706.28;;;4.24;70.52
30682;BME280;17439;48.092;11.842;2024-02-26T06:21:10;93711.34;;;4.25;69.21
30682;BME280;17439;48.092;11.842;2024-02-26T06:23:38;93721.91;;;4.30;70.49
30682;BME280;17439;48.092;11.842;2024-02-26T06:26:05;93720.19;;;4.34;71.10
30682;BME280;17439;48.092;11.842;2024-02-26T06:28:32;93718.13;;;4.40;71.11
30682;BME280;17439;48.092;11.842;2024-02-26T06:30:59;93720.66;;;4.45;71.08
30682;BME280;17439;48.092;11.842;2024-02-26T06:33:26;93718.63;;;4.51;71.19
30682;BME280;17439;48.092;11.842;2024-02-26T06:35:53;93721.16;;;4.56;71.42
30682;BME280;17439;48.092;11.842;2024-02-26T06:38:19;93728.72;;;4.63;71.33
30682;BME280;17439;48.092;11.842;2024-02-26T06:40:46;93733.66;;;4.69;71.59
30682;BME280;17439;48.092;11.842;2024-02-26T06:43:13;93722.91;;;4.78;71.45
30682;BME280;17439;48.092;11.842;2024-02-26T06:45:39;93724.00;;;4.86;71.59
30682;BME280;17439;48.092;11.842;2024-02-26T06:48:06;93738.53;;;4.94;71.49
30682;BME280;17439;48.092;11.842;2024-02-26T06:50:33;93734.28;;;5.01;71.96
30682;BME280;17439;48.092;11.842;2024-02-26T06:53:00;93736.94;;;5.10;71.69
30682;BME280;17439;48.092;11.842;2024-02-26T06:55:27;93740.41;;;5.19;71.47
30682;BME280;17439;48.092;11.842;2024-02-26T06:57:53;93746.88;;;5.27;71.43
30682;BME280;17439;48.092;11.842;2024-02-26T07:00:20;93756.06;;;5.35;71.31
30682;BME280;17439;48.092;11.842;2024-02-26T07:02:47;93753.34;;;5.43;71.77
30682;BME280;17439;48.092;11.842;2024-02-26T07:05:14;93761.38;;;5.52;71.58
30682;BME280;17439;48.092;11.842;2024-02-26T07:07:43;93758.66;;;5.61;71.48
30682;BME280;17439;48.092;11.842;2024-02-26T07:10:10;93762.13;;;5.70;71.21
30682;BME280;17439;48.092;11.842;2024-02-26T07:12:37;93757.84;;;5.78;71.24
30682;BME280;17439;48.092;11.842;2024-02-26T07:15:04;93753.56;;;5.86;71.03
30682;BME280;17439;48.092;11.842;2024-02-26T07:17:31;93763.47;;;5.94;71.12
30682;BME280;17439;48.092;11.842;2024-02-26T07:19:58;93755.72;;;6.01;71.02
30682;BME280;17439;48.092;11.842;2024-02-26T07:22:25;93756.78;;;6.09;71.26
30682;BME280;17439;48.092;11.842;2024-02-26T07:24:51;93763.25;;;6.16;70.71
30682;BME280;17439;48.092;11.842;2024-02-26T07:27:18;93759.72;;;6.25;70.81
30682;BME280;17439;48.092;11.842;2024-02-26T07:29:45;93761.59;;;6.33;70.90
30682;BME280;17439;48.092;11.842;2024-02-26T07:32:12;93768.03;;;6.41;70.95
30682;BME280;17439;48.092;11.842;2024-02-26T07:34:38;93772.25;;;6.50;70.89
30682;BME280;17439;48.092;11.842;2024-02-26T07:37:05;93769.84;;;6.58;70.34
30682;BME280;17439;48.092;11.842;2024-02-26T07:39:32;93755.09;;;6.64;69.81
30682;BME280;17439;48.092;11.842;2024-02-26T07:41:59;93759.16;;;6.70;69.77
30682;BME280;17439;48.092;11.842;2024-02-26T07:44:26;93760.56;;;6.76;69.46
30682;BME280;17439;48.092;11.842;2024-02-26T07:46:52;93760.34;;;6.81;69.14
30682;BME280;17439;48.092;11.842;2024-02-26T07:49:19;93765.88;;;6.85;68.72
30682;BME280;17439;48.092;11.842;2024-02-26T07:51:46;93762.19;;;6.89;68.60
30682;BME280;17439;48.092;11.842;2024-02-26T07:54:12;93763.91;;;6.94;68.63
30682;BME280;17439;48.092;11.842;2024-02-26T07:56:39;93767.19;;;7.00;68.60
30682;BME280;17439;48.092;11.842;2024-02-26T07:59:06;93773.50;;;7.04;68.25
30682;BME280;17439;48.092;11.842;2024-02-26T08:01:33;93785.34;;;7.12;68.95
30682;BME280;17439;48.092;11.842;2024-02-26T08:03:59;93789.41;;;7.18;68.40
30682;BME280;17439;48.092;11.842;2024-02-26T08:06:26;93786.97;;;7.25;68.71
30682;BME280;17439;48.092;11.842;2024-02-26T08:08:53;93796.09;;;7.33;68.62
30682;BME280;17439;48.092;11.842;2024-02-26T08:11:22;93800.63;;;7.41;68.76
30682;BME280;17439;48.092;11.842;2024-02-26T08:13:49;93797.84;;;7.50;68.78
30682;BME280;17439;48.092;11.842;2024-02-26T08:16:15;93807.78;;;7.58;68.72
30682;BME280;17439;48.092;11.842;2024-02-26T08:18:44;93806.91;;;7.66;69.23
30682;BME280;17439;48.092;11.842;2024-02-26T08:21:11;93812.22;;;7.75;69.03
30682;BME280;17439;48.092;11.842;2024-02-26T08:23:38;93812.56;;;7.86;68.48
30682;BME280;17439;48.092;11.842;2024-02-26T08:26:05;93816.31;;;7.93;68.54
30682;BME280;17439;48.092;11.842;2024-02-26T08:28:31;93807.81;;;8.04;68.95
30682;BME280;17439;48.092;11.842;2024-02-26T08:30:58;93807.69;;;8.12;68.91
30682;BME280;17439;48.092;11.842;2024-02-26T08:33:25;93803.75;;;8.22;68.88
30682;BME280;17439;48.092;11.842;2024-02-26T08:35:52;93799.06;;;8.31;68.71
30682;BME280;17439;48.092;11.842;2024-02-26T08:38:18;93783.53;;;8.41;68.24
30682;BME280;17439;48.092;11.842;2024-02-26T08:40:45;93786.16;;;8.49;68.20
30682;BME280;17439;48.092;11.842;2024-02-26T08:43:12;93794.94;;;8.59;67.79
30682;BME280;17439;48.092;11.842;2024-02-26T08:45:38;93800.56;;;8.66;67.65
30682;BME280;17439;48.092;11.842;2024-02-26T08:48:06;93801.25;;;8.75;67.41
30682;BME280;17439;48.092;11.842;2024-02-26T08:50:33;93797.97;;;8.82;66.91
30682;BME280;17439;48.092;11.842;2024-02-26T08:53:00;93789.28;;;8.88;66.89
30682;BME280;17439;48.092;11.842;2024-02-26T08:55:28;93788.25;;;8.93;66.62
30682;BME280;17439;48.092;11.842;2024-02-26T08:57:55;93797.72;;;8.99;66.46
30682;BME280;17439;48.092;11.842;2024-02-26T09:00:22;93787.00;;;9.03;65.94
30682;BME280;17439;48.092;11.842;2024-02-26T09:02:48;93797.56;;;9.08;65.88
30682;BME280;17439;48.092;11.842;2024-02-26T09:05:15;93801.19;;;9.12;65.47
30682;BME280;17439;48.092;11.842;2024-02-26T09:07:42;93793.50;;;9.14;65.39
30682;BME280;17439;48.092;11.842;2024-02-26T09:10:09;93794.06;;;9.20;65.62
30682;BME280;17439;48.092;11.842;2024-02-26T09:12:37;93796.53;;;9.25;64.96
30682;BME280;17439;48.092;11.842;2024-02-26T09:15:04;93792.38;;;9.28;65.04
30682;BME280;17439;48.092;11.842;2024-02-26T09:17:31;93791.34;;;9.32;64.67
30682;BME280;17439;48.092;11.842;2024-02-26T09:19:57;93791.44;;;9.36;64.68
30682;BME280;17439;48.092;11.842;2024-02-26T09:22:24;93796.16;;;9.39;64.31
30682;BME280;17439;48.092;11.842;2024-02-26T09:24:51;93805.94;;;9.43;64.80
30682;BME280;17439;48.092;11.842;2024-02-26T09:27:18;93809.19;;;9.49;65.34
30682;BME280;17439;48.092;11.842;2024-02-26T09:29:44;93808.59;;;9.56;65.37
30682;BME280;17439;48.092;11.842;2024-02-26T09:32:11;93801.13;;;9.65;65.58
30682;BME280;17439;48.092;11.842;2024-02-26T09:34:40;93802.09;;;9.73;63.90
30682;BME280;17439;48.092;11.842;2024-02-26T09:37:07;93811.28;;;9.84;65.12
30682;BME280;17439;48.092;11.842;2024-02-26T09:39:46;93813.88;;;9.93;65.48
30682;BME280;17439;48.092;11.842;2024-02-26T09:42:13;93813.69;;;10.02;65.21
30682;BME280;17439;48.092;11.842;2024-02-26T09:44:40;93820.97;;;10.13;65.41
30682;BME280;17439;48.092;11.842;2024-02-26T09:47:09;93821.94;;;10.21;62.90
30682;BME280;17439;48.092;11.842;2024-02-26T09:49:37;93815.22;;;10.31;64.17
30682;BME280;17439;48.092;11.842;2024-02-26T09:52:04;93816.19;;;10.39;63.94
30682;BME280;17439;48.092;11.842;2024-02-26T09:54:32;93824.09;;;10.44;63.02
30682;BME280;17439;48.092;11.842;2024-02-26T09:57:00;93825.28;;;10.46;62.33
30682;BME280;17439;48.092;11.842;2024-02-26T09:59:39;93823.81;;;10.49;59.03
30682;BME280;17439;48.092;11.842;2024-02-26T10:02:12;93827.84;;;10.55;59.93
30682;BME280;17439;48.092;11.842;2024-02-26T10:04:39;93823.28;;;10.59;63.71
30682;BME280;17439;48.092;11.842;2024-02-26T10:07:11;93829.59;;;10.63;60.36
30682;BME280;17439;48.092;11.842;2024-02-26T10:09:38;93822.34;;;10.67;62.94
30682;BME280;17439;48.092;11.842;2024-02-26T10:12:07;93819.72;;;10.71;60.85
30682;BME280;17439;48.092;11.842;2024-02-26T10:14:35;93812.78;;;10.74;62.29
30682;BME280;17439;48.092;11.842;2024-02-26T10:17:02;93820.22;;;10.77;61.98
30682;BME280;17439;48.092;11.842;2024-02-26T10:19:30;93813.31;;;10.79;61.96
30682;BME280;17439;48.092;11.842;2024-02-26T10:22:01;93808.31;;;10.81;62.26
30682;BME280;17439;48.092;11.842;2024-02-26T10:24:28;93805.72;;;10.85;62.81
30682;BME280;17439;48.092;11.842;2024-02-26T10:26:56;93800.38;;;10.88;62.94
30682;BME280;17439;48.092;11.842;2024-02-26T10:29:24;93797.72;;;10.92;61.66
30682;BME280;17439;48.092;11.842;2024-02-26T10:31:52;93796.31;;;10.98;62.31
30682;BME280;17439;48.092;11.842;2024-02-26T10:34:19;93791.78;;;11.02;61.68
30682;BME280;17439;48.092;11.842;2024-02-26T10:36:46;93785.63;;;11.05;61.82
30682;BME280;17439;48.092;11.842;2024-02-26T10:39:20;93791.13;;;11.09;61.43
30682;BME280;17439;48.092;11.842;2024-02-26T10:41:47;93782.66;;;11.11;61.81
30682;BME280;17439;48.092;11.842;2024-02-26T10:44:14;93777.28;;;11.14;62.01
30682;BME280;17439;48.092;11.842;2024-02-26T10:46:46;93777.00;;;11.19;60.34
30682;BME280;17439;48.092;11.842;2024-02-26T10:49:14;93776.72;;;11.24;61.88
30682;BME280;17439;48.092;11.842;2024-02-26T10:51:44;93772.59;;;11.31;59.75
30682;BME280;17439;48.092;11.842;2024-02-26T10:54:15;93768.09;;;11.38;59.92
30682;BME280;17439;48.092;11.842;2024-02-26T10:56:42;93776.75;;;11.44;61.60
30682;BME280;17439;48.092;11.842;2024-02-26T10:59:09;93768.31;;;11.49;61.41
30682;BME280;17439;48.092;11.842;2024-02-26T11:01:36;93768.44;;;11.56;61.74
30682;BME280;17439;48.092;11.842;2024-02-26T11:04:03;93757.75;;;11.64;61.19
30682;BME280;17439;48.092;11.842;2024-02-26T11:06:30;93760.63;;;11.71;61.63
30682;BME280;17439;48.092;11.842;2024-02-26T11:08:58;93765.81;;;11.79;61.52
30682;BME280;17439;48.092;11.842;2024-02-26T11:11:25;93762.88;;;11.88;61.92
30682;BME280;17439;48.092;11.842;2024-02-26T11:13:53;93764.66;;;12.00;61.62
30682;BME280;17439;48.092;11.842;2024-02-26T11:16:21;93761.59;;;12.02;60.30
30682;BME280;17439;48.092;11.842;2024-02-26T11:18:48;93766.19;;;12.21;61.63
30682;BME280;17439;48.092;11.842;2024-02-26T11:21:16;93768.72;;;12.33;62.02
30682;BME280;17439;48.092;11.842;2024-02-26T11:23:44;93761.91;;;12.43;62.25
30682;BME280;17439;48.092;11.842;2024-02-26T11:26:13;93765.56;;;12.54;61.34
30682;BME280;17439;48.092;11.842;2024-02-26T11:28:40;93773.53;;;12.66;63.00
30682;BME280;17439;48.092;11.842;2024-02-26T11:31:08;93777.97;;;12.78;62.36
30682;BME280;17439;48.092;11.842;2024-02-26T11:33:35;93776.16;;;12.86;62.23
30682;BME280;17439;48.092;11.842;2024-02-26T11:36:08;93788.28;;;12.92;55.79
30682;BME280;17439;48.092;11.842;2024-02-26T11:38:35;93799.72;;;13.01;60.99
30682;BME280;17439;48.092;11.842;2024-02-26T11:41:02;93792.00;;;13.07;60.32
30682;BME280;17439;48.092;11.842;2024-02-26T11:43:52;93796.72;;;13.10;53.83
30682;BME280;17439;48.092;11.842;2024-02-26T11:46:33;93801.41;;;13.13;53.55
30682;BME280;17439;48.092;11.842;2024-02-26T11:49:02;93790.56;;;13.17;58.32
30682;BME280;17439;48.092;11.842;2024-02-26T11:51:33;93782.47;;;13.20;57.72
30682;BME280;17439;48.092;11.842;2024-02-26T11:54:01;93778.22;;;13.23;59.16
30682;BME280;17439;48.092;11.842;2024-02-26T11:56:28;93778.69;;;13.29;58.79
30682;BME280;17439;48.092;11.842;2024-02-26T12:01:46;93775.31;;;13.35;51.12
30682;BME280;17439;48.092;11.842;2024-02-26T12:04:14;93777.66;;;13.37;56.79
30682;BME280;17439;48.092;11.842;2024-02-26T12:06:46;93795.22;;;13.39;56.79
30682;BME280;17439;48.092;11.842;2024-02-26T12:09:30;93782.38;;;13.40;52.03
30682;BME280;17439;48.092;11.842;2024-02-26T12:11:57;93790.22;;;13.45;57.67
30682;BME280;17439;48.092;11.842;2024-02-26T12:14:25;93782.53;;;13.51;58.80
30682;BME280;17439;48.092;11.842;2024-02-26T12:16:52;93795.88;;;13.63;58.83
30682;BME280;17439;48.092;11.842;2024-02-26T12:19:19;93774.25;;;13.77;56.81
30682;BME280;17439;48.092;11.842;2024-02-26T12:21:51;93762.75;;;13.91;57.16
30682;BME280;17439;48.092;11.842;2024-02-26T12:24:19;93766.41;;;14.06;57.86
30682;BME280;17439;48.092;11.842;2024-02-26T12:26:45;93754.81;;;14.17;58.96
30682;BME280;17439;48.092;11.842;2024-02-26T12:29:12;93754.59;;;14.36;49.04
30682;BME280;17439;48.092;11.842;2024-02-26T12:31:40;93754.31;;;14.45;51.61
30682;BME280;17439;48.092;11.842;2024-02-26T12:34:07;93756.31;;;14.51;51.06
30682;BME280;17439;48.092;11.842;2024-02-26T12:36:35;93755.97;;;14.57;49.03
30682;BME280;17439;48.092;11.842;2024-02-26T12:39:03;93749.78;;;14.60;50.23
30682;BME280;17439;48.092;11.842;2024-02-26T12:41:29;93754.47;;;14.63;47.61
30682;BME280;17439;48.092;11.842;2024-02-26T12:43:57;93762.72;;;14.70;43.56
30682;BME280;17439;48.092;11.842;2024-02-26T12:46:24;93765.09;;;14.72;42.89
30682;BME280;17439;48.092;11.842;2024-02-26T12:48:51;93755.31;;;14.67;46.17
30682;BME280;17439;48.092;11.842;2024-02-26T12:51:18;93759.19;;;14.66;47.16
30682;BME280;17439;48.092;11.842;2024-02-26T12:53:45;93766.69;;;14.76;37.90
30682;BME280;17439;48.092;11.842;2024-02-26T12:56:13;93777.53;;;14.73;41.00
30682;BME280;17439;48.092;11.842;2024-02-26T12:58:40;93782.94;;;14.65;43.32
30682;BME280;17439;48.092;11.842;2024-02-26T13:01:07;93791.84;;;14.59;43.90